Aérodrome :
LOGIN :

S'inscrire | Disclaimer

   EN    FR    IT 

 










Légende :    VFR   VFR Marginal   IFR   IFR Intensif   IFR Très Intensif
Visi : 
Plafond : 
>= 8 km
>= 3000ft
5 à 8 km
1000 à 3000 ft
1500m à 5 km
500 à 1000 ft
800 à 1500m
200 à 500 ft
< 800m
< 200 ft
Symboles :   Orages  Brouillard  Fortes neiges  Fortes précipitations  Vent > 20 kt
SIGMETs :   Divers  Orages  Givrage  Turbulence  Onde Orograph.  Cendres Volcan.







- Altitude de l'aérodrome : 72 ft
- Code IATA : UDE


EHVK - Volkel Airbase

DERNIER METAR :
  • 250625Z AUTO 26013KT 230V290 9999 BKN360 06/01 Q1007 BLU 25008KT 9999 SCT025 TEMPO 27012KT 5000 SHRAGS FEW012 SCT018CB BKN020

METARs EXPIRÉS :
  • 250555Z AUTO 24008KT 220V280 9999 FEW370 05/01 Q1007 BLU 25008KT 9999 SCT025 TEMPO 27012KT 5000 SHRAGS FEW012 SCT018CB BKN020
  • 250525Z AUTO 25007KT 9999 SCT090 SCT100 05/02 Q1006 REDZ BLU 25008KT 9999 SCT025 TEMPO 27012KT 5000 SHRAGS FEW012 SCT018CB BKN020
  • 250514Z AUTO 25008KT 230V290 9999 BKN090 05/02 Q1006 BLU 25008KT 9999 SCT025 TEMPO 27012KT 5000 SHRAGS FEW012 SCT018CB BKN020
  • 250455Z AUTO 27006KT 240V310 9999 DZ FEW037 OVC051 05/02 Q1006 BLACKBLU
  • 250425Z AUTO 28005KT 9999 SCT370 05/02 Q1006 BLACKBLU
  • 250355Z AUTO 29007KT 9999 FEW024 BKN092 06/02 Q1006 BLACKBLU

TAF TAF EHVK
Valide du 25 à 05h jusqu'au 25 à 17h UTC


250428Z 2505/2517 27008KT 9999 SCT025
TEMPO 2507/2517 31012G22KT SCT020CB BKN025
PROB30
TEMPO 2507/2512 32015G25KT 4000 SHRAGS TSRAGS FEW012 SCT018CB BKN020
BECMG 2511/2513 31012KT
Pas de NOTAMs connus pour ce terrain.



MET'MAP, la Météo Aéronautique d'un coup d'oeil ! - Copyright ORBIFLY Décembre 2007 - Disclaimer

ORBIFLY MET'MAP TEAM :

Programmation & Développement : Alexandra Zaïnal
Conception & Développement : Baudouin d'Aumeries
Co-Programmation & Développement : Marc-Olivier Méhu
Soutien technique & logistique : Manuel Goepfert

Contact : metmap@orbifly.com




SOURCES & CREDITS :

   NOAA